Time;durP1;ratioP1;P1;durP2;ratioP2;P2;SDS_P1;SDS_P2;PMS_P1;PMS_P2;Temp;Humidity;BMP_temperature;BMP_pressure;BME280_temperature;BME280_humidity;BME280_pressure;Samples;Min_cycle;Max_cycle;Signal;HPM_P1;HPM_P2
2021/12/12 00:01:35;;;;;;;2.40;1.10;;;18.90;68.30;;;;;;5164086;27;20617;-44
2021/12/12 00:04:11;;;;;;;1.45;1.00;;;18.90;68.30;;;;;;5164349;27;20033;-44
2021/12/12 00:06:38;;;;;;;3.92;0.90;;;18.90;68.40;;;;;;5164428;27;20027;-45
2021/12/12 00:09:08;;;;;;;1.70;0.90;;;18.90;68.40;;;;;;5164112;27;20082;-45
2021/12/12 00:11:34;;;;;;;2.53;1.15;;;18.90;68.20;;;;;;5163985;27;20030;-45
2021/12/12 00:14:07;;;;;;;1.17;1.00;;;18.90;68.00;;;;;;5164144;27;20035;-44
2021/12/12 00:16:33;;;;;;;3.38;1.08;;;18.90;68.40;;;;;;5164286;27;20105;-44
2021/12/12 00:18:59;;;;;;;1.85;1.00;;;18.90;68.50;;;;;;5163751;27;20034;-44
2021/12/12 00:21:26;;;;;;;2.70;0.90;;;18.90;68.30;;;;;;5178702;27;20021;-44
2021/12/12 00:23:52;;;;;;;2.13;1.10;;;18.90;68.30;;;;;;5185096;27;20044;-43
2021/12/12 00:26:18;;;;;;;2.10;0.90;;;18.90;68.60;;;;;;5184847;27;20033;-45
2021/12/12 00:28:44;;;;;;;3.03;1.08;;;18.90;68.20;;;;;;5168650;27;20030;-46
2021/12/12 00:31:12;;;;;;;2.20;1.10;;;18.90;68.20;;;;;;5164067;27;20044;-45
2021/12/12 00:33:46;;;;;;;3.20;1.40;;;18.90;68.10;;;;;;5163739;27;20387;-46
2021/12/12 00:36:16;;;;;;;1.88;0.98;;;18.90;68.30;;;;;;5164230;27;20033;-46
2021/12/12 00:38:43;;;;;;;1.67;0.95;;;18.90;68.10;;;;;;5163639;27;20038;-45
2021/12/12 00:41:10;;;;;;;2.15;1.02;;;18.90;68.30;;;;;;5163733;27;20023;-46
2021/12/12 00:43:39;;;;;;;;;;;18.90;68.30;;;;;;5164307;27;20038;-47
2021/12/12 00:46:07;;;;;;;2.08;0.88;;;18.90;68.20;;;;;;5164036;27;20644;-45
2021/12/12 00:48:34;;;;;;;2.03;1.00;;;18.90;68.10;;;;;;5163895;27;20107;-47
2021/12/12 00:51:01;;;;;;;1.73;0.95;;;18.90;68.10;;;;;;5162480;27;20030;-46
2021/12/12 00:53:27;;;;;;;3.28;1.00;;;18.90;68.10;;;;;;5166773;27;20022;-46
2021/12/12 00:55:54;;;;;;;1.73;1.05;;;18.90;68.00;;;;;;5167754;27;20629;-46
2021/12/12 00:58:20;;;;;;;2.03;0.95;;;18.80;68.00;;;;;;5155119;27;20030;-45
2021/12/12 01:00:52;;;;;;;1.20;0.90;;;18.90;68.10;;;;;;5121788;27;20072;-45
2021/12/12 01:03:22;;;;;;;1.35;0.90;;;18.80;68.00;;;;;;5061812;28;20060;-44
2021/12/12 01:05:49;;;;;;;2.38;1.38;;;18.80;68.10;;;;;;5113994;28;20462;-47
2021/12/12 01:08:16;;;;;;;1.98;1.00;;;18.80;68.00;;;;;;5064459;28;20627;-46
2021/12/12 01:10:46;;;;;;;4.18;1.13;;;18.80;68.10;;;;;;5130661;27;20405;-48
2021/12/12 01:13:12;;;;;;;1.58;1.08;;;18.90;68.00;;;;;;5062833;28;20041;-49
2021/12/12 01:15:42;;;;;;;4.55;1.17;;;18.90;68.20;;;;;;5066581;28;20033;-45
2021/12/12 01:18:13;;;;;;;3.80;1.15;;;18.90;68.00;;;;;;5061829;28;20405;-46
2021/12/12 01:20:44;;;;;;;3.25;1.13;;;18.90;68.00;;;;;;5060883;27;20048;-45
2021/12/12 01:23:17;;;;;;;1.38;0.80;;;18.90;68.10;;;;;;5061828;28;20069;-47
2021/12/12 01:25:45;;;;;;;1.80;1.00;;;18.80;67.90;;;;;;5061661;28;20063;-46
2021/12/12 01:28:13;;;;;;;1.20;1.00;;;18.80;67.90;;;;;;5061935;27;20036;-46
2021/12/12 01:30:39;;;;;;;1.52;1.08;;;18.80;67.70;;;;;;5061485;28;20090;-45
2021/12/12 01:33:09;;;;;;;3.78;1.00;;;18.80;67.80;;;;;;5061553;28;20476;-44
2021/12/12 01:35:35;;;;;;;1.80;0.90;;;18.80;67.70;;;;;;5061557;28;20041;-46
2021/12/12 01:40:55;;;;;;;3.30;1.10;;;18.80;67.80;;;;;;5069609;28;20656;-45
2021/12/12 01:43:30;;;;;;;1.50;0.90;;;18.80;67.80;;;;;;5041316;28;20025;-45
2021/12/12 01:46:03;;;;;;;3.72;1.08;;;18.80;67.80;;;;;;5109748;28;20025;-45
2021/12/12 01:48:36;;;;;;;1.83;0.90;;;18.80;67.80;;;;;;5057751;28;20070;-45
2021/12/12 01:51:06;;;;;;;3.10;1.02;;;18.80;67.90;;;;;;5060320;27;20040;-45
2021/12/12 01:53:34;;;;;;;2.50;1.20;;;18.80;67.90;;;;;;5061504;27;20101;-44
2021/12/12 01:56:11;;;;;;;3.90;1.00;;;18.70;67.80;;;;;;5061084;28;20029;-45
2021/12/12 01:58:38;;;;;;;1.30;0.98;;;18.70;67.70;;;;;;5047970;28;20040;-46
2021/12/12 02:01:08;;;;;;;1.88;0.80;;;18.70;67.70;;;;;;5061083;27;20178;-45
2021/12/12 02:03:36;;;;;;;1.85;1.45;;;18.70;67.80;;;;;;5059783;28;20057;-45
2021/12/12 02:06:05;;;;;;;2.75;1.05;;;18.70;67.70;;;;;;5060861;28;20029;-45
2021/12/12 02:08:32;;;;;;;1.88;0.90;;;18.70;67.70;;;;;;5061096;28;20710;-46
2021/12/12 02:11:04;;;;;;;2.13;0.80;;;18.70;68.40;;;;;;5060686;28;20029;-45
2021/12/12 02:13:30;;;;;;;1.60;1.13;;;18.70;67.60;;;;;;5069060;28;20496;-46
2021/12/12 02:15:59;;;;;;;2.13;0.77;;;18.70;67.60;;;;;;5080988;27;20043;-45
2021/12/12 02:18:29;;;;;;;1.90;0.75;;;18.70;67.60;;;;;;5134188;27;20030;-45
2021/12/12 02:21:11;;;;;;;1.50;0.82;;;18.70;67.60;;;;;;5060160;27;20033;-44
2021/12/12 02:37:23;;;;;;;3.90;1.45;;;18.70;67.50;;;;;;5060529;28;20144;-44
2021/12/12 02:39:49;;;;;;;1.63;0.90;;;18.60;67.40;;;;;;5129040;27;20060;-44
2021/12/12 02:42:18;;;;;;;1.57;0.60;;;18.60;67.40;;;;;;5128504;27;20033;-45
2021/12/12 02:44:44;;;;;;;1.33;0.98;;;18.60;67.30;;;;;;5060783;27;20270;-44
2021/12/12 02:47:14;;;;;;;1.70;1.00;;;18.60;67.40;;;;;;5060472;28;20021;-44
2021/12/12 02:49:55;;;;;;;2.63;0.98;;;18.60;67.40;;;;;;5059318;27;20025;-44
2021/12/12 02:52:29;;;;;;;2.58;1.30;;;18.60;67.30;;;;;;5060142;27;20040;-48
2021/12/12 02:55:00;;;;;;;1.17;0.85;;;18.60;67.30;;;;;;5060348;27;20040;-45
2021/12/12 02:57:27;;;;;;;1.77;0.80;;;18.60;67.30;;;;;;5055907;27;20252;-44
2021/12/12 02:59:53;;;;;;;3.25;0.70;;;18.60;67.30;;;;;;5051717;27;20029;-45
2021/12/12 03:02:29;;;;;;;1.35;1.00;;;18.60;67.30;;;;;;5062639;28;20029;-45
2021/12/12 03:04:57;;;;;;;1.60;0.88;;;18.60;67.30;;;;;;5058622;28;20025;-47
2021/12/12 03:07:23;;;;;;;3.03;0.95;;;18.60;67.30;;;;;;5060171;28;20373;-45
2021/12/12 03:09:54;;;;;;;1.80;0.88;;;18.60;67.30;;;;;;5060161;28;20074;-45
2021/12/12 03:12:31;;;;;;;2.33;0.85;;;18.60;67.30;;;;;;5060173;27;20029;-47
2021/12/12 03:14:58;;;;;;;1.10;0.73;;;18.60;67.30;;;;;;5059612;27;20108;-44
2021/12/12 03:17:25;;;;;;;1.35;0.80;;;18.60;67.30;;;;;;5059835;28;20013;-46
2021/12/12 03:20:01;;;;;;;1.85;0.80;;;18.50;67.20;;;;;;5057936;27;20033;-46
2021/12/12 03:22:27;;;;;;;1.73;1.00;;;18.50;67.30;;;;;;5126550;27;20033;-46
2021/12/12 03:24:53;;;;;;;2.40;0.90;;;18.50;67.30;;;;;;5059906;28;20029;-46
2021/12/12 03:27:23;;;;;;;3.13;0.88;;;18.50;67.30;;;;;;5059760;28;20097;-44
2021/12/12 03:29:49;;;;;;;2.10;0.95;;;18.50;67.30;;;;;;5059861;27;20029;-45
2021/12/12 03:32:17;;;;;;;2.47;1.05;;;18.50;67.30;;;;;;5059870;28;20025;-46
2021/12/12 03:34:45;;;;;;;1.55;0.90;;;18.50;67.20;;;;;;5059512;28;20041;-46
2021/12/12 03:37:13;;;;;;;2.75;1.17;;;18.40;67.10;;;;;;5059436;28;20029;-46
2021/12/12 03:39:40;;;;;;;2.83;1.00;;;18.50;67.20;;;;;;5059517;28;20025;-46
2021/12/12 03:42:10;;;;;;;2.97;1.00;;;18.50;67.20;;;;;;5044106;28;20084;-44
2021/12/12 03:44:38;;;;;;;2.53;0.77;;;18.40;67.10;;;;;;5039765;28;20037;-45
2021/12/12 03:47:21;;;;;;;1.40;0.70;;;18.40;67.10;;;;;;5123588;27;20035;-46
2021/12/12 03:49:47;;;;;;;2.35;1.00;;;18.40;67.10;;;;;;5041415;28;20029;-46
2021/12/12 03:52:15;;;;;;;1.77;0.90;;;18.40;67.00;;;;;;5059241;28;20021;-47
2021/12/12 03:54:41;;;;;;;1.15;0.80;;;18.40;67.00;;;;;;5059393;28;20097;-46
2021/12/12 03:57:07;;;;;;;1.55;0.75;;;18.40;67.10;;;;;;5059220;28;20032;-44
2021/12/12 03:59:34;;;;;;;2.58;0.85;;;18.30;67.00;;;;;;5059435;28;20032;-45
2021/12/12 04:02:00;;;;;;;0.75;0.60;;;18.30;67.00;;;;;;5156239;27;20051;-46
2021/12/12 04:04:39;;;;;;;1.13;0.60;;;18.30;67.00;;;;;;5164090;27;20027;-46
2021/12/12 04:07:23;;;;;;;1.20;1.02;;;18.30;67.00;;;;;;5164207;27;20645;-44
2021/12/12 04:09:49;;;;;;;2.53;0.90;;;18.30;67.00;;;;;;5164080;27;20022;-45
2021/12/12 04:12:16;;;;;;;2.42;0.93;;;18.30;67.00;;;;;;5172327;27;20448;-45
2021/12/12 04:14:43;;;;;;;1.20;0.80;;;18.30;66.90;;;;;;5185016;27;20113;-45
2021/12/12 04:17:13;;;;;;;1.92;0.80;;;18.30;67.00;;;;;;5179739;27;20506;-47
2021/12/12 04:19:41;;;;;;;2.00;0.80;;;18.30;66.90;;;;;;5163143;27;20030;-46
2021/12/12 04:22:07;;;;;;;2.15;0.70;;;18.30;66.90;;;;;;5164167;27;20031;-47
2021/12/12 04:24:35;;;;;;;1.35;0.80;;;18.30;66.90;;;;;;5163705;27;20103;-45
2021/12/12 04:27:02;;;;;;;1.25;0.82;;;18.20;66.90;;;;;;5164821;27;20056;-46
2021/12/12 04:29:33;;;;;;;2.47;0.80;;;18.20;66.80;;;;;;5168252;27;20038;-45
2021/12/12 04:32:02;;;;;;;3.17;0.75;;;18.20;66.80;;;;;;5168095;27;20015;-45
2021/12/12 04:34:31;;;;;;;1.33;0.80;;;18.20;66.80;;;;;;5167662;27;20462;-44
2021/12/12 04:37:00;;;;;;;1.70;0.57;;;18.20;66.80;;;;;;5167796;27;20030;-46
2021/12/12 04:39:32;;;;;;;1.83;0.70;;;18.20;66.90;;;;;;5169671;27;20102;-46
2021/12/12 04:42:19;;;;;;;2.47;0.80;;;18.20;66.80;;;;;;5167860;27;20086;-46
2021/12/12 04:44:47;;;;;;;0.90;0.70;;;18.20;66.80;;;;;;5151560;27;20084;-45
2021/12/12 04:51:05;;;;;;;3.45;0.80;;;18.10;66.70;;;;;;5166648;27;20041;-44
2021/12/12 04:54:18;;;;;;;0.95;0.90;;;18.10;66.70;;;;;;5135685;27;20038;-45
2021/12/12 04:57:04;;;;;;;2.45;0.70;;;18.10;66.70;;;;;;5161337;27;20043;-46
2021/12/12 04:59:47;;;;;;;1.90;0.63;;;18.10;66.80;;;;;;5167339;27;20062;-47
2021/12/12 05:02:29;;;;;;;0.93;0.80;;;18.10;66.80;;;;;;5148743;27;20046;-47
2021/12/12 05:05:12;;;;;;;0.95;0.70;;;18.10;66.80;;;;;;5167220;27;20701;-44
2021/12/12 05:07:43;;;;;;;1.60;0.70;;;18.00;66.60;;;;;;5149582;27;20064;-44
2021/12/12 05:10:25;;;;;;;1.98;0.90;;;18.00;66.70;;;;;;5131608;27;20082;-47
2021/12/12 05:13:27;;;;;;;1.17;0.73;;;18.00;66.60;;;;;;5128612;27;20034;-45
2021/12/12 05:16:03;;;;;;;2.50;0.80;;;18.00;66.60;;;;;;5128028;27;20035;-46
2021/12/12 05:18:32;;;;;;;1.45;0.90;;;18.00;66.60;;;;;;5123709;27;20041;-45
2021/12/12 05:21:03;;;;;;;1.30;0.90;;;18.00;66.60;;;;;;5127598;27;20031;-44
2021/12/12 05:23:30;;;;;;;1.17;0.80;;;17.90;66.50;;;;;;5144702;27;20023;-45
2021/12/12 05:26:00;;;;;;;1.48;0.82;;;17.90;66.50;;;;;;5152070;27;20022;-46
2021/12/12 05:28:32;;;;;;;1.00;0.70;;;17.90;66.60;;;;;;5167040;27;20061;-44
2021/12/12 05:31:00;;;;;;;0.98;0.70;;;17.90;66.50;;;;;;5146231;27;20108;-45
2021/12/12 05:33:27;;;;;;;1.52;0.93;;;17.90;66.50;;;;;;5127460;27;20038;-46
2021/12/12 05:35:53;;;;;;;1.70;0.90;;;17.90;66.50;;;;;;5145931;27;20039;-46
2021/12/12 05:38:21;;;;;;;1.27;0.70;;;17.90;66.50;;;;;;5128014;27;20031;-45
2021/12/12 05:40:47;;;;;;;1.50;0.80;;;17.80;66.40;;;;;;5148089;27;20056;-45
2021/12/12 05:43:14;;;;;;;2.15;0.90;;;17.80;66.40;;;;;;5131093;27;20027;-45
2021/12/12 05:45:40;;;;;;;3.35;0.90;;;17.80;66.40;;;;;;5166365;27;20087;-44
2021/12/12 05:48:06;;;;;;;0.82;0.80;;;17.80;66.30;;;;;;5147603;27;20360;-45
2021/12/12 05:50:33;;;;;;;3.50;0.80;;;17.80;66.30;;;;;;5146631;27;20034;-45
2021/12/12 05:52:59;;;;;;;1.05;0.73;;;17.80;66.30;;;;;;5166713;27;20026;-44
2021/12/12 05:55:27;;;;;;;0.80;0.70;;;17.80;66.30;;;;;;5166157;27;20498;-45
2021/12/12 05:57:55;;;;;;;1.48;0.82;;;17.80;66.30;;;;;;5166275;27;20082;-46
2021/12/12 06:00:33;;;;;;;0.82;0.82;;;17.70;66.20;;;;;;5147732;27;20481;-46
2021/12/12 06:02:59;;;;;;;;;;;17.70;66.30;;;;;;5173897;27;20018;-45
2021/12/12 06:05:25;;;;;;;2.00;0.75;;;17.70;66.10;;;;;;5167903;27;19913;-47
2021/12/12 06:07:54;;;;;;;1.17;0.80;;;17.70;66.10;;;;;;5186983;27;20043;-46
2021/12/12 06:10:21;;;;;;;1.23;0.90;;;17.70;66.10;;;;;;5186947;27;20149;-44
2021/12/12 06:12:47;;;;;;;1.95;0.93;;;17.70;66.20;;;;;;5187013;27;20069;-47
2021/12/12 06:15:16;;;;;;;1.83;0.80;;;17.70;66.10;;;;;;5167886;27;20048;-44
2021/12/12 06:17:43;;;;;;;1.45;0.88;;;17.70;66.10;;;;;;5176510;27;20031;-44
2021/12/12 06:20:09;;;;;;;1.07;0.90;;;17.70;66.00;;;;;;5145874;27;20030;-44
2021/12/12 06:22:36;;;;;;;1.45;0.70;;;17.60;66.00;;;;;;5130052;27;20486;-45
2021/12/12 06:25:03;;;;;;;1.60;0.80;;;17.60;66.00;;;;;;5146740;27;20031;-47
2021/12/12 06:27:29;;;;;;;0.80;0.70;;;17.60;66.00;;;;;;5165494;27;20086;-45
2021/12/12 06:29:56;;;;;;;1.40;0.90;;;17.60;66.00;;;;;;5165792;27;20451;-45
2021/12/12 06:32:22;;;;;;;1.13;0.70;;;17.60;65.90;;;;;;5168002;27;20019;-45
2021/12/12 06:34:49;;;;;;;0.95;0.82;;;17.50;65.80;;;;;;5186046;27;20038;-47
2021/12/12 06:37:15;;;;;;;1.50;0.90;;;17.50;65.80;;;;;;5186435;27;20030;-46
2021/12/12 06:39:41;;;;;;;1.58;0.90;;;17.60;65.90;;;;;;5173070;27;20045;-45
2021/12/12 06:42:07;;;;;;;0.82;0.70;;;17.50;65.80;;;;;;5129683;27;20027;-47
2021/12/12 06:44:37;;;;;;;1.38;0.80;;;17.50;65.70;;;;;;5165220;27;20033;-46
2021/12/12 06:47:04;;;;;;;1.27;1.00;;;17.50;65.70;;;;;;5129619;27;20045;-47
2021/12/12 06:49:30;;;;;;;0.77;0.70;;;17.50;65.70;;;;;;5145317;27;20479;-48
2021/12/12 06:51:57;;;;;;;0.93;0.70;;;17.40;65.70;;;;;;5163582;27;20031;-45
2021/12/12 06:54:25;;;;;;;0.80;0.80;;;17.50;65.70;;;;;;5146498;27;20035;-48
2021/12/12 06:56:53;;;;;;;1.13;0.80;;;17.50;65.70;;;;;;5146570;27;20034;-47
2021/12/12 06:59:21;;;;;;;3.10;0.88;;;17.40;65.60;;;;;;5165050;27;20038;-45
2021/12/12 07:01:48;;;;;;;1.48;0.90;;;17.40;65.60;;;;;;5164364;27;20082;-44
2021/12/12 07:04:18;;;;;;;1.85;0.80;;;17.40;65.60;;;;;;5147890;27;20596;-47
2021/12/12 07:06:45;;;;;;;1.13;0.80;;;17.40;65.50;;;;;;5185533;27;20034;-46
2021/12/12 07:09:12;;;;;;;1.65;0.88;;;17.40;65.50;;;;;;5176948;27;20054;-45
2021/12/12 07:11:38;;;;;;;1.37;0.97;;;17.30;65.40;;;;;;5146001;27;20047;-45
2021/12/12 07:14:06;;;;;;;0.80;0.60;;;17.30;65.50;;;;;;5164863;27;20035;-46
2021/12/12 07:16:32;;;;;;;;;;;17.30;65.40;;;;;;5165163;27;20026;-46
2021/12/12 07:18:58;;;;;;;2.78;0.70;;;17.30;65.40;;;;;;5145558;27;19914;-45
2021/12/12 07:21:24;;;;;;;1.70;0.80;;;17.20;65.40;;;;;;5128791;27;20035;-44
2021/12/12 07:23:50;;;;;;;1.50;0.82;;;17.30;65.40;;;;;;5143903;27;20023;-44
2021/12/12 07:26:17;;;;;;;2.05;0.80;;;17.20;65.40;;;;;;5143506;27;20174;-45
2021/12/12 07:28:43;;;;;;;1.30;0.80;;;17.20;65.30;;;;;;5145802;27;20028;-45
2021/12/12 07:31:15;;;;;;;1.10;0.75;;;17.20;65.30;;;;;;5164634;27;20136;-45
2021/12/12 07:33:42;;;;;;;1.30;0.70;;;17.20;65.30;;;;;;5164413;27;20054;-48
2021/12/12 07:36:09;;;;;;;0.77;0.77;;;17.20;65.30;;;;;;5145819;27;20044;-44
2021/12/12 07:38:36;;;;;;;1.67;0.70;;;17.20;65.30;;;;;;5164569;27;20116;-45
2021/12/12 07:41:02;;;;;;;1.58;0.70;;;17.20;65.30;;;;;;5164323;27;20038;-44
2021/12/12 07:43:29;;;;;;;1.05;0.80;;;17.10;65.20;;;;;;5164426;27;20090;-44
2021/12/12 07:45:55;;;;;;;1.73;0.70;;;17.10;65.20;;;;;;5164256;27;20018;-44
2021/12/12 07:48:21;;;;;;;1.85;0.93;;;17.10;65.20;;;;;;5164100;27;20031;-47
2021/12/12 07:50:47;;;;;;;1.38;0.80;;;17.10;65.20;;;;;;5163003;27;20035;-45
2021/12/12 07:53:14;;;;;;;1.20;0.80;;;17.10;65.20;;;;;;5164422;27;20074;-45
2021/12/12 07:55:40;;;;;;;0.68;0.68;;;17.10;65.20;;;;;;5163856;27;20441;-45
2021/12/12 07:58:08;;;;;;;1.77;0.70;;;17.00;65.10;;;;;;5145588;27;20025;-46
2021/12/12 08:00:34;;;;;;;0.98;0.63;;;17.00;65.10;;;;;;5164041;27;20056;-46
2021/12/12 08:03:01;;;;;;;1.00;0.82;;;17.00;65.10;;;;;;5169142;27;20023;-45
2021/12/12 08:05:29;;;;;;;1.23;0.90;;;17.00;65.10;;;;;;5168055;27;20539;-47
2021/12/12 08:08:04;;;;;;;1.25;0.70;;;17.00;65.10;;;;;;5168519;27;20035;-45
2021/12/12 08:10:31;;;;;;;1.05;0.75;;;17.00;65.10;;;;;;5168311;27;20033;-46
2021/12/12 08:12:57;;;;;;;1.02;0.80;;;17.00;65.10;;;;;;5168230;27;20030;-46
2021/12/12 08:15:23;;;;;;;0.95;0.70;;;16.90;65.00;;;;;;5168384;27;20049;-44
2021/12/12 08:17:49;;;;;;;0.70;0.52;;;16.90;65.10;;;;;;5167971;27;20375;-45
2021/12/12 08:20:16;;;;;;;1.10;0.60;;;16.90;65.10;;;;;;5142029;27;20030;-45
2021/12/12 08:22:42;;;;;;;0.77;0.70;;;16.90;65.10;;;;;;5161439;27;20027;-47
2021/12/12 08:25:10;;;;;;;1.17;0.75;;;16.90;65.00;;;;;;5168102;27;20038;-46
2021/12/12 08:27:36;;;;;;;1.30;0.82;;;16.90;65.00;;;;;;5167789;27;20027;-46
2021/12/12 08:30:03;;;;;;;0.70;0.70;;;16.90;65.00;;;;;;5168137;27;20399;-45
2021/12/12 08:32:29;;;;;;;1.08;0.60;;;16.90;65.00;;;;;;5167973;27;20044;-45
2021/12/12 08:34:56;;;;;;;0.93;0.73;;;16.80;64.90;;;;;;5181453;27;20097;-46
2021/12/12 08:37:22;;;;;;;0.80;0.70;;;16.80;64.80;;;;;;5188588;27;20269;-46
2021/12/12 08:39:48;;;;;;;0.90;0.63;;;16.80;64.90;;;;;;5155968;27;20034;-44
2021/12/12 08:42:14;;;;;;;0.90;0.60;;;16.80;64.90;;;;;;5167682;27;20027;-45
2021/12/12 08:44:40;;;;;;;0.75;0.50;;;16.80;64.90;;;;;;5149120;27;20027;-45
2021/12/12 08:47:08;;;;;;;1.13;0.80;;;16.70;64.90;;;;;;5162518;27;20117;-46
2021/12/12 08:49:35;;;;;;;0.73;0.70;;;16.70;64.90;;;;;;5147046;27;20027;-45
2021/12/12 08:52:13;;;;;;;1.17;0.90;;;16.70;64.90;;;;;;5167258;27;20023;-44
2021/12/12 08:54:40;;;;;;;1.08;0.60;;;16.70;64.90;;;;;;5167386;27;20049;-46
2021/12/12 08:57:12;;;;;;;0.77;0.63;;;16.70;64.80;;;;;;5167400;27;20114;-45
2021/12/12 08:59:40;;;;;;;1.25;0.80;;;16.70;64.80;;;;;;5167552;27;20054;-46
2021/12/12 09:02:08;;;;;;;0.63;0.60;;;16.60;64.70;;;;;;5167336;27;20050;-47
2021/12/12 09:04:40;;;;;;;0.80;0.75;;;16.60;64.70;;;;;;5167517;27;20056;-46
2021/12/12 09:07:13;;;;;;;0.60;0.52;;;16.60;64.70;;;;;;5153116;27;20051;-47
2021/12/12 09:09:45;;;;;;;0.63;0.63;;;16.60;64.80;;;;;;5157624;27;20080;-44
2021/12/12 09:12:28;;;;;;;0.70;0.70;;;16.60;64.80;;;;;;5148286;27;20082;-46
2021/12/12 09:15:19;;;;;;;0.80;0.80;;;16.60;64.70;;;;;;5146438;27;20035;-47
2021/12/12 09:17:48;;;;;;;0.90;0.80;;;16.50;64.70;;;;;;5131713;27;20108;-46
2021/12/12 09:20:50;;;;;;;0.70;0.60;;;16.50;64.60;;;;;;5159842;27;20027;-45
2021/12/12 09:23:29;;;;;;;0.88;0.80;;;16.50;64.70;;;;;;5065781;28;20036;-44
2021/12/12 09:25:57;;;;;;;2.25;0.82;;;16.50;64.70;;;;;;5065654;28;20028;-46
2021/12/12 09:28:29;;;;;;;1.08;0.70;;;16.50;64.70;;;;;;5081794;28;20032;-45
2021/12/12 09:30:58;;;;;;;1.08;0.90;;;16.50;64.70;;;;;;5065229;28;20042;-45
2021/12/12 09:33:34;;;;;;;0.93;0.70;;;16.40;64.60;;;;;;5082176;28;20045;-47
2021/12/12 09:36:10;;;;;;;0.68;0.60;;;16.40;64.70;;;;;;5065526;28;20101;-44
2021/12/12 09:38:42;;;;;;;2.38;0.90;;;16.40;64.70;;;;;;5081938;28;20025;-47
2021/12/12 09:41:23;;;;;;;0.77;0.77;;;16.40;64.70;;;;;;5086227;28;20103;-44
2021/12/12 09:43:59;;;;;;;0.75;0.75;;;16.30;64.60;;;;;;5085369;28;20174;-45
2021/12/12 09:47:11;;;;;;;1.27;0.80;;;16.40;64.80;;;;;;5085316;28;20036;-45
2021/12/12 09:52:56;;;;;;;0.70;0.70;;;16.50;64.90;;;;;;5101837;28;20039;-45
2021/12/12 09:55:29;;;;;;;2.40;0.68;;;16.50;64.90;;;;;;5101823;28;20036;-45
2021/12/12 09:58:03;;;;;;;0.88;0.70;;;16.40;64.90;;;;;;5085166;28;20057;-46
2021/12/12 10:00:32;;;;;;;0.60;0.60;;;16.40;64.90;;;;;;5158132;27;20128;-46
2021/12/12 10:03:17;;;;;;;0.73;0.73;;;16.40;64.90;;;;;;5166284;27;20029;-46
2021/12/12 10:06:17;;;;;;;0.65;0.65;;;16.30;64.90;;;;;;5167374;27;20019;-46
2021/12/12 10:09:07;;;;;;;0.77;0.60;;;16.30;64.80;;;;;;5149346;27;20023;-45
2021/12/12 10:11:55;;;;;;;2.03;0.60;;;16.30;64.90;;;;;;5165964;27;20031;-46
2021/12/12 10:14:36;;;;;;;0.60;0.60;;;16.40;65.10;;;;;;5131009;27;20042;-44
2021/12/12 10:17:46;;;;;;;0.70;0.70;;;16.40;65.00;;;;;;5147425;27;20079;-47
2021/12/12 10:20:26;;;;;;;0.60;0.52;;;16.40;65.00;;;;;;5080707;28;20032;-46
2021/12/12 10:22:56;;;;;;;0.50;0.50;;;16.40;65.00;;;;;;5080973;28;20078;-45
2021/12/12 10:25:27;;;;;;;0.70;0.70;;;16.30;65.10;;;;;;5079671;28;20600;-47
2021/12/12 10:28:03;;;;;;;0.63;0.60;;;16.30;65.00;;;;;;5080699;28;20048;-45
2021/12/12 10:30:33;;;;;;;0.77;0.57;;;16.30;65.00;;;;;;5048023;28;20043;-45
2021/12/12 10:33:28;;;;;;;0.70;0.70;;;16.30;65.00;;;;;;5064119;28;20032;-45
2021/12/12 10:35:58;;;;;;;0.57;0.50;;;16.20;64.90;;;;;;5080656;28;20052;-45
2021/12/12 10:38:52;;;;;;;0.50;0.50;;;16.30;65.00;;;;;;5080684;28;20107;-46
2021/12/12 10:41:22;;;;;;;0.50;0.40;;;16.40;65.30;;;;;;5083123;28;20060;-47
2021/12/12 10:44:07;;;;;;;0.80;0.65;;;16.40;65.10;;;;;;5080441;28;20029;-47
2021/12/12 10:46:36;;;;;;;0.85;0.60;;;16.40;65.10;;;;;;5080723;28;20135;-47
2021/12/12 10:49:13;;;;;;;0.45;0.45;;;16.40;65.20;;;;;;5063806;28;20048;-45
2021/12/12 10:51:46;;;;;;;0.50;0.50;;;16.30;65.20;;;;;;5080200;28;20456;-46
2021/12/12 10:54:23;;;;;;;0.45;0.45;;;16.30;65.10;;;;;;5104494;27;20043;-45
2021/12/12 10:56:58;;;;;;;1.00;0.60;;;16.20;65.10;;;;;;5165396;27;20133;-44
2021/12/12 10:59:30;;;;;;;0.60;0.60;;;16.20;65.10;;;;;;5164801;27;20109;-46
2021/12/12 11:02:08;;;;;;;0.57;0.50;;;16.20;65.00;;;;;;5121646;27;20056;-46
2021/12/12 11:04:45;;;;;;;0.50;0.50;;;16.30;65.30;;;;;;5080334;28;20037;-46
2021/12/12 11:07:20;;;;;;;0.40;0.40;;;16.40;65.20;;;;;;5080270;27;20021;-46
2021/12/12 11:10:12;;;;;;;0.60;0.60;;;16.40;65.10;;;;;;5079797;27;20025;-46
2021/12/12 11:13:01;;;;;;;0.80;0.80;;;16.30;65.10;;;;;;5063006;28;20048;-44
2021/12/12 11:15:39;;;;;;;0.60;0.60;;;16.30;65.20;;;;;;5106954;28;20041;-44
2021/12/12 11:18:19;;;;;;;0.63;0.60;;;16.20;65.10;;;;;;5053164;28;20025;-45
2021/12/12 11:20:52;;;;;;;0.50;0.50;;;16.20;65.10;;;;;;5058724;28;20129;-44
2021/12/12 11:23:34;;;;;;;0.57;0.40;;;16.30;65.10;;;;;;5126718;27;20035;-45
2021/12/12 11:26:11;;;;;;;0.40;0.40;;;16.30;65.30;;;;;;5128590;27;20029;-46
2021/12/12 11:28:46;;;;;;;0.60;0.50;;;16.40;65.20;;;;;;5125894;27;20239;-46
2021/12/12 11:31:19;;;;;;;0.70;0.52;;;16.40;65.10;;;;;;5059948;28;20051;-44
2021/12/12 11:33:47;;;;;;;0.70;0.60;;;16.30;65.10;;;;;;5127005;27;20025;-46
2021/12/12 11:36:15;;;;;;;0.60;0.40;;;16.30;65.20;;;;;;5128258;27;20025;-45
2021/12/12 11:39:03;;;;;;;1.20;0.55;;;16.20;65.10;;;;;;5127277;27;20036;-45
2021/12/12 11:41:54;;;;;;;0.82;0.60;;;16.20;65.10;;;;;;5059531;28;20037;-45
2021/12/12 11:44:31;;;;;;;0.43;0.43;;;16.20;65.00;;;;;;5119504;27;20032;-44
2021/12/12 11:47:29;;;;;;;0.40;0.40;;;16.30;65.30;;;;;;5122565;27;20025;-45
2021/12/12 11:50:11;;;;;;;0.40;0.40;;;16.40;65.20;;;;;;5058609;27;20856;-44
2021/12/12 11:52:58;;;;;;;0.57;0.50;;;16.40;65.10;;;;;;5128275;28;20029;-45
2021/12/12 11:55:36;;;;;;;0.93;0.60;;;16.30;65.00;;;;;;5112000;28;20037;-46
2021/12/12 11:58:16;;;;;;;0.60;0.55;;;16.30;65.10;;;;;;5059389;28;20436;-45
2021/12/12 12:00:47;;;;;;;0.52;0.52;;;16.20;65.00;;;;;;5142080;27;20061;-45
2021/12/12 12:03:46;;;;;;;0.50;0.50;;;16.20;65.10;;;;;;5164374;27;20015;-46
2021/12/12 12:06:50;;;;;;;0.60;0.60;;;16.30;65.10;;;;;;5164451;27;20015;-46
2021/12/12 12:09:35;;;;;;;0.45;0.43;;;16.40;65.30;;;;;;5164145;27;20030;-45
2021/12/12 12:12:14;;;;;;;0.70;0.45;;;16.40;65.00;;;;;;5150402;27;20024;-45
2021/12/12 12:14:50;;;;;;;0.47;0.32;;;16.30;65.00;;;;;;5126338;28;20035;-45
2021/12/12 12:17:33;;;;;;;0.50;0.50;;;16.30;65.10;;;;;;5143576;28;20034;-48
2021/12/12 12:20:09;;;;;;;0.50;0.50;;;16.20;65.10;;;;;;5123957;28;20052;-44
2021/12/12 12:22:56;;;;;;;0.40;0.40;;;16.20;65.10;;;;;;5143122;28;20019;-47
2021/12/12 12:28:25;;;;;;;0.43;0.43;;;16.30;65.20;;;;;;5123035;28;20034;-45
2021/12/12 12:31:32;;;;;;;0.60;0.60;;;16.40;65.20;;;;;;5142865;28;20084;-45
2021/12/12 12:34:36;;;;;;;0.52;0.43;;;16.40;65.00;;;;;;5147687;27;20048;-44
2021/12/12 12:37:26;;;;;;;0.50;0.50;;;16.30;65.00;;;;;;5164023;27;20057;-45
2021/12/12 12:40:29;;;;;;;0.75;0.50;;;16.20;64.90;;;;;;5164005;27;20090;-45
2021/12/12 12:43:17;;;;;;;1.10;0.50;;;16.20;65.00;;;;;;5122577;28;20042;-45
2021/12/12 12:46:08;;;;;;;0.50;0.50;;;16.20;65.00;;;;;;5122779;28;20030;-47
2021/12/12 12:49:12;;;;;;;0.68;0.40;;;16.30;65.10;;;;;;5141963;27;20076;-44
2021/12/12 12:52:15;;;;;;;0.50;0.50;;;16.30;64.70;;;;;;5145898;27;20056;-44
2021/12/12 12:55:22;;;;;;;1.88;0.50;;;16.30;64.70;;;;;;5146882;27;20403;-46
2021/12/12 12:57:48;;;;;;;0.70;0.65;;;16.30;64.80;;;;;;5146358;27;20086;-46
2021/12/12 13:00:19;;;;;;;0.63;0.40;;;16.20;64.80;;;;;;5144535;27;20042;-46
2021/12/12 13:02:57;;;;;;;0.60;0.50;;;16.20;64.90;;;;;;5167650;27;20030;-44
2021/12/12 13:05:48;;;;;;;;;;;16.10;64.80;;;;;;5168388;27;20041;-45
2021/12/12 13:08:49;;;;;;;0.40;0.40;;;16.20;64.80;;;;;;5167534;27;19921;-44
2021/12/12 13:11:27;;;;;;;0.68;0.32;;;16.30;64.90;;;;;;5120393;27;20053;-49
2021/12/12 13:14:12;;;;;;;;;;;16.30;64.70;;;;;;5146951;27;20122;-47
2021/12/12 13:16:44;;;;;;;1.55;0.57;;;16.30;64.70;;;;;;5146418;27;20481;-44
2021/12/12 13:19:24;;;;;;;0.45;0.45;;;16.20;64.70;;;;;;5146254;27;20019;-45
2021/12/12 13:21:53;;;;;;;0.65;0.50;;;16.20;64.80;;;;;;5145522;27;20038;-48
2021/12/12 13:24:48;;;;;;;0.80;0.43;;;16.20;64.80;;;;;;5128201;27;20122;-45
2021/12/12 13:30:00;;;;;;;0.40;0.40;;;16.30;64.80;;;;;;5136423;27;20647;-44
2021/12/12 13:32:47;;;;;;;0.40;0.40;;;16.30;64.60;;;;;;5107777;28;20035;-48
2021/12/12 13:35:28;;;;;;;0.60;0.50;;;16.30;64.60;;;;;;5124937;28;20035;-44
2021/12/12 13:38:13;;;;;;;0.82;0.52;;;16.20;64.60;;;;;;5125501;28;20027;-47
2021/12/12 13:40:43;;;;;;;0.65;0.50;;;16.20;64.70;;;;;;5127208;27;20028;-45
2021/12/12 13:43:17;;;;;;;0.60;0.50;;;16.10;64.70;;;;;;5146087;27;20467;-45
2021/12/12 13:45:55;;;;;;;0.50;0.50;;;16.20;64.70;;;;;;5146053;27;20031;-44
2021/12/12 13:48:32;;;;;;;0.40;0.40;;;16.30;64.60;;;;;;5130277;27;20031;-44